Time;durP1;ratioP1;P1;durP2;ratioP2;P2;SDS_P1;SDS_P2;PMS_P1;PMS_P2;Temp;Humidity;BMP_temperature;BMP_pressure;BME280_temperature;BME280_humidity;BME280_pressure;Samples;Min_cycle;Max_cycle;Signal;HPM_P1;HPM_P2
2023/01/15 00:02:16;;;;;;;;;;;;;;;10.05;90.74;99070.72;5034599;28;19967;-73
2023/01/15 00:05:19;;;;;;;;;;;;;;;10.17;90.96;99091.56;5034546;28;19920;-73
2023/01/15 00:08:22;;;;;;;;;;;;;;;10.11;91.07;99083.34;5034444;28;19924;-73
2023/01/15 00:11:25;;;;;;;;;;;;;;;10.11;91.85;99073.72;5034326;28;20062;-73
2023/01/15 00:14:28;;;;;;;;;;;;;;;10.40;90.71;99071.63;5034285;28;19966;-73
2023/01/15 00:17:31;;;;;;;;;;;;;;;10.33;90.23;99086.06;5034754;28;19967;-73
2023/01/15 00:20:34;;;;;;;;;;;;;;;10.37;88.58;99084.06;5034439;28;20434;-73
2023/01/15 00:30:23;;;;;;;;;;;;;;;9.99;87.96;99085.09;5034153;28;19924;-73
2023/01/15 00:33:27;;;;;;;;;;;;;;;9.93;88.15;99083.75;5061504;28;19923;-73
2023/01/15 00:36:32;;;;;;;;;;;;;;;9.71;89.13;99083.63;5074214;28;20033;-73
2023/01/15 00:39:36;;;;;;;;;;;;;;;9.88;88.37;99078.03;5061433;28;19963;-73
2023/01/15 00:42:39;;;;;;;;;;;;;;;9.75;89.19;99096.34;5073871;28;20339;-73
2023/01/15 00:45:43;;;;;;;;;;;;;;;9.72;88.53;99111.41;5073764;28;19955;-73
2023/01/15 00:48:46;;;;;;;;;;;;;;;9.77;89.52;99114.53;5061319;28;19923;-73
2023/01/15 00:51:50;;;;;;;;;;;;;;;9.89;89.77;99120.63;5073402;28;19923;-73
2023/01/15 00:54:53;;;;;;;;;;;;;;;9.90;90.21;99130.97;5073492;28;19962;-73
2023/01/15 00:57:56;;;;;;;;;;;;;;;9.65;89.43;99129.28;5073547;28;19919;-73
2023/01/15 01:00:59;;;;;;;;;;;;;;;9.61;86.61;99124.38;5061282;28;19919;-73
2023/01/15 01:04:02;;;;;;;;;;;;;;;9.74;86.38;99119.97;5061467;28;19919;-73
2023/01/15 01:07:05;;;;;;;;;;;;;;;9.80;85.51;99135.19;5061123;28;19958;-73
2023/01/15 01:10:08;;;;;;;;;;;;;;;9.60;83.11;99138.34;5073157;28;19934;-73
2023/01/15 01:13:12;;;;;;;;;;;;;;;9.61;83.91;99153.91;5073138;28;20388;-73
2023/01/15 01:16:20;;;;;;;;;;;;;;;9.22;83.65;99160.97;5073175;28;19924;-73
2023/01/15 01:19:23;;;;;;;;;;;;;;;9.47;82.92;99161.88;5073050;28;20064;-73
2023/01/15 01:22:26;;;;;;;;;;;;;;;9.18;84.30;99163.88;5060582;28;19965;-73
2023/01/15 01:25:29;;;;;;;;;;;;;;;9.11;83.45;99175.66;5072957;28;19918;-72
2023/01/15 01:28:32;;;;;;;;;;;;;;;9.23;83.49;99182.66;5072661;28;19923;-73
2023/01/15 01:31:36;;;;;;;;;;;;;;;9.48;83.68;99193.09;5072712;28;19974;-73
2023/01/15 01:34:38;;;;;;;;;;;;;;;9.62;82.50;99199.13;5073153;28;20411;-72
2023/01/15 01:37:41;;;;;;;;;;;;;;;9.35;81.52;99207.91;5072710;28;19986;-72
2023/01/15 01:40:44;;;;;;;;;;;;;;;9.23;81.88;99212.19;5060381;28;19961;-73
2023/01/15 01:43:52;;;;;;;;;;;;;;;9.28;82.68;99217.06;5072110;28;19934;-72
2023/01/15 01:46:55;;;;;;;;;;;;;;;9.38;82.99;99223.34;5072482;28;19923;-72
2023/01/15 01:50:01;;;;;;;;;;;;;;;9.29;81.68;99235.25;5072912;28;20345;-73
2023/01/15 01:53:11;;;;;;;;;;;;;;;9.57;81.34;99232.50;5060066;28;19926;-72
2023/01/15 01:56:16;;;;;;;;;;;;;;;9.45;82.54;99248.09;5072406;28;19922;-73
2023/01/15 01:59:20;;;;;;;;;;;;;;;9.40;82.09;99247.53;5072511;28;20293;-73
2023/01/15 02:02:24;;;;;;;;;;;;;;;9.34;81.88;99247.97;5072414;28;20336;-73
2023/01/15 02:05:27;;;;;;;;;;;;;;;9.28;80.81;99256.19;5072503;28;19918;-73
2023/01/15 02:08:31;;;;;;;;;;;;;;;9.10;78.84;99254.84;5072626;28;19927;-73
2023/01/15 02:11:34;;;;;;;;;;;;;;;8.81;79.16;99261.03;5059969;28;20007;-73
2023/01/15 02:15:00;;;;;;;;;;;;;;;8.83;78.70;99259.13;5059820;28;19967;-73
2023/01/15 02:18:09;;;;;;;;;;;;;;;8.25;77.83;99252.41;5059832;28;20026;-73
2023/01/15 02:21:22;;;;;;;;;;;;;;;8.12;78.20;99241.94;5059796;28;19919;-73
2023/01/15 02:24:35;;;;;;;;;;;;;;;8.08;78.21;99250.06;5059846;28;19961;-73
2023/01/15 02:27:43;;;;;;;;;;;;;;;7.71;79.99;99243.66;5059810;28;19965;-73
2023/01/15 02:30:48;;;;;;;;;;;;;;;8.04;79.03;99249.41;5071917;28;19939;-73
2023/01/15 02:33:58;;;;;;;;;;;;;;;8.33;80.13;99249.34;5059840;28;19935;-73
2023/01/15 02:37:05;;;;;;;;;;;;;;;8.62;79.96;99260.56;5072014;28;19954;-73
2023/01/15 02:40:11;;;;;;;;;;;;;;;8.63;80.13;99262.22;5059879;28;19935;-73
2023/01/15 02:43:15;;;;;;;;;;;;;;;8.83;79.74;99263.50;5059710;28;19923;-73
2023/01/15 02:46:21;;;;;;;;;;;;;;;8.68;80.61;99265.38;5059579;28;19919;-73
2023/01/15 02:49:24;;;;;;;;;;;;;;;8.42;75.79;99268.78;5059509;28;19923;-72
2023/01/15 02:52:33;;;;;;;;;;;;;;;7.82;76.41;99272.50;5059338;28;20049;-73
2023/01/15 02:55:39;;;;;;;;;;;;;;;7.88;77.61;99265.13;5062193;28;19970;-73
2023/01/15 02:58:44;;;;;;;;;;;;;;;7.76;76.33;99265.88;5063299;28;19966;-73
2023/01/15 03:02:08;;;;;;;;;;;;;;;8.18;76.91;99265.94;5063381;28;19919;-74
2023/01/15 03:05:32;;;;;;;;;;;;;;;8.26;76.38;99261.91;5051908;28;19966;-73
2023/01/15 03:08:36;;;;;;;;;;;;;;;7.96;75.12;99267.25;5048213;28;19918;-73
2023/01/15 03:11:46;;;;;;;;;;;;;;;8.09;76.66;99275.97;5063052;28;19935;-73
2023/01/15 03:15:00;;;;;;;;;;;;;;;8.23;76.65;99285.56;5075489;28;19971;-73
2023/01/15 03:18:05;;;;;;;;;;;;;;;8.14;78.08;99276.53;5063020;28;20009;-73
2023/01/15 03:21:11;;;;;;;;;;;;;;;8.12;76.88;99267.16;5062954;28;20439;-70
2023/01/15 03:24:17;;;;;;;;;;;;;;;8.24;76.04;99283.78;5075409;28;19919;-70
2023/01/15 03:27:21;;;;;;;;;;;;;;;8.37;75.07;99289.88;5062882;28;20025;-71
2023/01/15 03:30:29;;;;;;;;;;;;;;;7.82;75.01;99275.91;5075054;28;19921;-70
2023/01/15 03:33:33;;;;;;;;;;;;;;;8.01;76.14;99291.25;5075073;28;19923;-70
2023/01/15 03:36:37;;;;;;;;;;;;;;;7.99;76.93;99298.31;5062613;28;19919;-70
2023/01/15 03:39:41;;;;;;;;;;;;;;;8.27;76.33;99286.19;5062527;28;19919;-71
2023/01/15 03:46:45;;;;;;;;;;;;;;;7.45;74.32;99293.72;5062346;28;20423;-70
2023/01/15 03:50:13;;;;;;;;;;;;;;;7.62;75.59;99295.31;5062378;28;20388;-70
2023/01/15 03:53:46;;;;;;;;;;;;;;;7.72;75.82;99299.97;5074801;28;19962;-71
2023/01/15 03:56:54;;;;;;;;;;;;;;;7.12;75.24;99295.69;5062575;28;19954;-71
2023/01/15 04:00:00;;;;;;;;;;;;;;;7.33;75.63;99299.63;5062265;28;19963;-71
2023/01/15 04:03:08;;;;;;;;;;;;;;;7.57;75.07;99301.75;5062115;28;19939;-71
2023/01/15 04:06:12;;;;;;;;;;;;;;;7.39;74.74;99308.84;5061801;28;19923;-71
2023/01/15 04:09:15;;;;;;;;;;;;;;;7.29;76.07;99318.13;5062103;28;19920;-71
2023/01/15 04:12:20;;;;;;;;;;;;;;;6.77;76.36;99305.50;5062049;28;19924;-71
2023/01/15 04:15:24;;;;;;;;;;;;;;;6.79;75.72;99322.66;5074359;28;19969;-71
2023/01/15 04:18:28;;;;;;;;;;;;;;;6.43;75.55;99322.94;5061783;28;19919;-71
2023/01/15 04:21:31;;;;;;;;;;;;;;;6.53;77.35;99329.28;5061796;28;20285;-70
2023/01/15 04:24:34;;;;;;;;;;;;;;;6.64;75.54;99320.94;5074557;28;19919;-71
2023/01/15 04:27:37;;;;;;;;;;;;;;;6.83;76.74;99325.91;5074135;28;20519;-71
2023/01/15 04:30:42;;;;;;;;;;;;;;;6.41;75.71;99330.78;5073870;28;19923;-71
2023/01/15 04:33:45;;;;;;;;;;;;;;;6.29;76.76;99329.72;5074060;28;20395;-71
2023/01/15 04:36:48;;;;;;;;;;;;;;;6.13;76.79;99328.84;5073922;28;19935;-71
2023/01/15 04:39:51;;;;;;;;;;;;;;;6.42;77.55;99324.69;5074208;28;19939;-70
2023/01/15 04:46:19;;;;;;;;;;;;;;;6.51;76.29;99331.16;5073726;28;19977;-71
2023/01/15 04:49:23;;;;;;;;;;;;;;;6.19;76.56;99331.13;5073714;28;20417;-71
2023/01/15 04:52:25;;;;;;;;;;;;;;;5.93;78.08;99337.66;5073511;28;20468;-71
2023/01/15 04:55:29;;;;;;;;;;;;;;;6.21;77.35;99329.28;5073889;28;19927;-71
2023/01/15 04:58:33;;;;;;;;;;;;;;;5.91;78.05;99336.06;5073444;28;19995;-70
2023/01/15 05:01:36;;;;;;;;;;;;;;;6.20;78.32;99338.00;5073388;28;20301;-71
2023/01/15 05:04:39;;;;;;;;;;;;;;;6.30;77.64;99338.34;5073336;28;19935;-70
2023/01/15 05:07:42;;;;;;;;;;;;;;;6.49;77.08;99335.59;5073379;28;19965;-70
2023/01/15 05:10:45;;;;;;;;;;;;;;;6.73;76.35;99333.38;5073143;28;19920;-70
2023/01/15 05:13:48;;;;;;;;;;;;;;;6.62;75.60;99359.13;5073065;28;19970;-70
2023/01/15 05:16:51;;;;;;;;;;;;;;;6.46;76.86;99343.53;5072598;28;20008;-70
2023/01/15 05:20:02;;;;;;;;;;;;;;;6.77;76.74;99347.06;5077585;28;19923;-71
2023/01/15 05:23:06;;;;;;;;;;;;;;;6.94;75.91;99354.75;5090413;28;19993;-73
2023/01/15 05:27:07;;;;;;;;;;;;;;;6.74;76.01;99351.50;5089115;28;20395;-72
2023/01/15 05:30:13;;;;;;;;;;;;;;;6.97;76.14;99337.22;5088530;28;19927;-72
2023/01/15 05:33:16;;;;;;;;;;;;;;;6.69;76.66;99342.28;5089756;28;19981;-72
2023/01/15 05:36:20;;;;;;;;;;;;;;;6.83;76.69;99339.78;5089202;28;19923;-73
2023/01/15 05:39:28;;;;;;;;;;;;;;;6.99;77.19;99331.94;5089403;28;19918;-72
2023/01/15 05:42:34;;;;;;;;;;;;;;;6.53;76.33;99345.72;5076902;28;19919;-72
2023/01/15 05:45:37;;;;;;;;;;;;;;;6.67;77.05;99342.38;5076820;28;19965;-71
2023/01/15 05:48:41;;;;;;;;;;;;;;;6.60;76.93;99335.00;5069314;28;19935;-71
2023/01/15 05:51:46;;;;;;;;;;;;;;;6.61;77.36;99345.31;5069100;28;19924;-71
2023/01/15 05:54:49;;;;;;;;;;;;;;;6.80;77.44;99339.09;5083744;28;19918;-71
2023/01/15 05:57:52;;;;;;;;;;;;;;;6.84;76.89;99348.41;5085159;28;19973;-71
2023/01/15 06:00:57;;;;;;;;;;;;;;;6.81;77.65;99359.78;5085947;28;19919;-72
2023/01/15 06:04:01;;;;;;;;;;;;;;;6.87;77.74;99359.44;5087729;28;19914;-71
2023/01/15 06:07:06;;;;;;;;;;;;;;;6.66;78.17;99360.63;5089088;28;20385;-71
2023/01/15 06:10:09;;;;;;;;;;;;;;;6.96;77.81;99352.91;4717135;28;10001356;-71
2023/01/15 06:13:14;;;;;;;;;;;;;;;6.51;77.96;99363.16;5066911;28;19923;-72
2023/01/15 06:16:18;;;;;;;;;;;;;;;6.85;77.99;99355.25;5066270;28;19973;-72
2023/01/15 06:19:22;;;;;;;;;;;;;;;7.22;76.94;99352.28;5065556;28;20288;-72
2023/01/15 06:22:25;;;;;;;;;;;;;;;7.17;77.65;99356.88;5081251;28;19919;-72
2023/01/15 06:25:34;;;;;;;;;;;;;;;6.58;77.69;99373.22;5086560;28;19922;-72
2023/01/15 06:28:37;;;;;;;;;;;;;;;6.94;77.82;99365.16;5087790;28;20281;-72
2023/01/15 06:31:40;;;;;;;;;;;;;;;7.18;77.42;99379.38;5090177;28;19942;-72
2023/01/15 06:34:44;;;;;;;;;;;;;;;7.22;76.28;99377.44;5090589;28;19919;-71
2023/01/15 06:37:50;;;;;;;;;;;;;;;7.22;76.19;99377.44;5090114;28;20023;-71
2023/01/15 06:40:56;;;;;;;;;;;;;;;7.43;75.30;99367.53;5089348;28;19931;-72
2023/01/15 06:47:21;;;;;;;;;;;;;;;7.38;75.66;99383.44;5090065;28;20599;-72
2023/01/15 06:50:24;;;;;;;;;;;;;;;7.05;76.38;99375.78;5090403;28;19926;-72
2023/01/15 06:53:27;;;;;;;;;;;;;;;7.21;75.66;99366.19;5092588;28;19963;-74
2023/01/15 06:56:30;;;;;;;;;;;;;;;6.92;76.33;99360.06;5092275;28;19919;-73
2023/01/15 06:59:33;;;;;;;;;;;;;;;6.61;77.03;99358.28;5093371;28;19927;-73
2023/01/15 07:02:37;;;;;;;;;;;;;;;6.36;77.77;99376.13;5094246;28;20282;-73
2023/01/15 07:05:40;;;;;;;;;;;;;;;6.34;78.54;99380.53;5095902;28;20335;-73
2023/01/15 07:08:43;;;;;;;;;;;;;;;6.49;78.45;99390.13;5096263;28;20100;-73
2023/01/15 07:11:50;;;;;;;;;;;;;;;6.89;77.40;99398.34;5083435;28;19923;-73
2023/01/15 07:14:53;;;;;;;;;;;;;;;6.67;77.45;99394.31;5095780;28;19919;-73
2023/01/15 07:17:56;;;;;;;;;;;;;;;6.67;77.31;99401.28;5095722;28;19957;-73
2023/01/15 07:20:59;;;;;;;;;;;;;;;6.68;77.34;99392.56;5095507;28;19919;-74
2023/01/15 07:24:02;;;;;;;;;;;;;;;6.69;76.86;99395.06;5095656;28;19934;-74
2023/01/15 07:27:06;;;;;;;;;;;;;;;6.87;76.62;99401.03;5095474;28;19919;-74
2023/01/15 07:30:09;;;;;;;;;;;;;;;7.00;77.00;99401.19;5095350;28;19977;-73
2023/01/15 07:33:13;;;;;;;;;;;;;;;7.04;76.05;99394.88;5082807;28;19922;-73
2023/01/15 07:36:16;;;;;;;;;;;;;;;6.47;78.10;99400.56;5095404;28;19962;-73
2023/01/15 07:39:19;;;;;;;;;;;;;;;6.87;77.51;99406.22;5093459;28;19965;-72
2023/01/15 07:52:31;;;;;;;;;;;;;;;6.79;76.12;99417.94;5095099;28;19926;-74
2023/01/15 07:55:35;;;;;;;;;;;;;;;6.67;77.57;99417.72;5094327;28;19919;-75
2023/01/15 07:58:38;;;;;;;;;;;;;;;6.81;76.97;99426.50;5094281;28;20387;-74
2023/01/15 08:01:40;;;;;;;;;;;;;;;6.99;75.10;99431.53;5094870;28;19919;-75
2023/01/15 08:04:44;;;;;;;;;;;;;;;7.05;75.74;99416.50;5086859;28;19973;-75
2023/01/15 08:07:48;;;;;;;;;;;;;;;7.07;76.34;99425.06;5094397;28;19919;-76
2023/01/15 08:15:12;;;;;;;;;;;;;;;6.99;77.40;99435.91;5094440;28;20445;-75
2023/01/15 08:18:15;;;;;;;;;;;;;;;7.00;78.31;99447.97;5094625;28;19922;-74
2023/01/15 08:21:20;;;;;;;;;;;;;;;7.35;77.56;99445.19;5093921;28;20422;-77
2023/01/15 08:24:29;;;;;;;;;;;;;;;7.33;77.74;99455.66;5094081;28;19958;-77
2023/01/15 08:27:32;;;;;;;;;;;;;;;7.17;78.47;99455.66;5094228;28;20388;-76
2023/01/15 08:30:35;;;;;;;;;;;;;;;7.25;77.29;99459.63;5093813;28;19978;-76
2023/01/15 08:33:39;;;;;;;;;;;;;;;7.37;77.61;99477.13;5094021;28;19935;-76
2023/01/15 08:36:43;;;;;;;;;;;;;;;7.37;76.67;99477.13;5093780;28;19922;-76
2023/01/15 08:39:45;;;;;;;;;;;;;;;7.26;77.37;99484.69;5093785;28;19962;-75
2023/01/15 08:42:49;;;;;;;;;;;;;;;7.20;77.39;99489.28;5081915;28;19922;-77
2023/01/15 08:45:52;;;;;;;;;;;;;;;7.02;77.69;99487.72;5060814;28;19926;-75
2023/01/15 08:48:55;;;;;;;;;;;;;;;6.55;77.68;99500.63;5087947;28;19954;-78
2023/01/15 08:51:59;;;;;;;;;;;;;;;6.50;77.95;99506.03;5095738;28;19961;-76
2023/01/15 08:55:03;;;;;;;;;;;;;;;6.20;76.86;99493.72;5069172;28;19955;-75
2023/01/15 08:58:06;;;;;;;;;;;;;;;6.54;77.30;99497.19;5069670;28;19922;-73
2023/01/15 09:01:14;;;;;;;;;;;;;;;6.42;75.95;99509.06;5069278;28;19919;-74
2023/01/15 09:04:19;;;;;;;;;;;;;;;6.23;77.64;99503.97;5056898;28;19947;-76
2023/01/15 09:07:22;;;;;;;;;;;;;;;6.33;78.34;99500.91;5068370;28;19915;-79
2023/01/15 09:10:25;;;;;;;;;;;;;;;6.54;76.93;99494.59;5068490;28;19923;-76
2023/01/15 09:13:28;;;;;;;;;;;;;;;6.27;76.47;99491.66;5068074;28;19923;-74
2023/01/15 09:16:33;;;;;;;;;;;;;;;6.31;75.58;99490.56;5068768;28;19934;-75
2023/01/15 09:19:39;;;;;;;;;;;;;;;6.22;75.42;99476.34;5074797;28;19927;-76
2023/01/15 09:22:44;;;;;;;;;;;;;;;6.51;75.28;99479.19;5087074;28;19958;-75
2023/01/15 09:25:51;;;;;;;;;;;;;;;6.62;74.59;99479.44;5086852;28;19922;-74
2023/01/15 09:28:55;;;;;;;;;;;;;;;6.64;74.48;99481.97;5088139;28;19923;-75
2023/01/15 09:31:58;;;;;;;;;;;;;;;6.96;74.65;99498.44;5087456;28;20288;-76
2023/01/15 09:35:01;;;;;;;;;;;;;;;6.96;75.84;99498.44;5087660;28;19934;-77
2023/01/15 09:38:11;;;;;;;;;;;;;;;7.38;74.99;99504.81;5088309;28;20015;-78
2023/01/15 09:49:08;;;;;;;;;;;;;;;7.41;73.85;99525.47;5088821;28;20130;-78
2023/01/15 09:52:21;;;;;;;;;;;;;;;7.50;73.09;99527.56;5090964;28;19966;-77
2023/01/15 09:55:26;;;;;;;;;;;;;;;7.03;71.65;99517.97;5087776;28;19918;-77
2023/01/15 09:58:34;;;;;;;;;;;;;;;6.78;71.83;99534.03;5087953;28;19935;-78
2023/01/15 10:01:37;;;;;;;;;;;;;;;6.43;73.48;99525.47;5075874;28;20384;-74
2023/01/15 10:04:47;;;;;;;;;;;;;;;6.62;72.41;99531.38;5088863;28;19969;-83
2023/01/15 10:08:03;;;;;;;;;;;;;;;6.13;72.03;99528.72;5089303;28;19915;-78
2023/01/15 10:11:19;;;;;;;;;;;;;;;5.97;73.02;99539.00;5076242;28;19962;-84
2023/01/15 10:14:38;;;;;;;;;;;;;;;6.03;73.00;99545.63;5089271;28;19919;-80
2023/01/15 10:17:43;;;;;;;;;;;;;;;6.09;72.68;99536.69;5089097;28;19918;-84
2023/01/15 10:20:48;;;;;;;;;;;;;;;6.15;72.89;99541.59;5088549;28;19914;-83
2023/01/15 10:24:04;;;;;;;;;;;;;;;6.33;71.87;99535.47;5089018;28;20395;-86
2023/01/15 10:27:19;;;;;;;;;;;;;;;6.37;72.06;99541.34;5076670;28;19919;-83
2023/01/15 10:30:37;;;;;;;;;;;;;;;6.17;74.26;99548.38;5078450;28;20289;-85
2023/01/15 10:33:55;;;;;;;;;;;;;;;6.43;72.72;99561.81;5068813;28;19924;-85
2023/01/15 10:37:05;;;;;;;;;;;;;;;6.20;72.73;99563.81;5068344;28;19923;-75
2023/01/15 10:40:30;;;;;;;;;;;;;;;6.36;72.59;99552.66;5044084;28;19919;-84
2023/01/15 10:43:36;;;;;;;;;;;;;;;6.17;72.35;99569.16;5055793;28;19919;-82
2023/01/15 10:46:40;;;;;;;;;;;;;;;6.17;72.94;99551.00;5068413;28;20557;-82
2023/01/15 10:49:44;;;;;;;;;;;;;;;6.67;71.16;99565.78;5068424;28;19966;-82
2023/01/15 10:52:49;;;;;;;;;;;;;;;6.43;72.03;99573.03;5067679;28;20284;-81
2023/01/15 11:00:07;;;;;;;;;;;;;;;6.31;71.78;99573.66;5067899;28;19951;-77
2023/01/15 11:03:17;;;;;;;;;;;;;;;6.33;71.68;99569.22;5065247;28;19923;-76
2023/01/15 11:06:21;;;;;;;;;;;;;;;6.31;71.29;99586.63;5047924;28;19920;-77
2023/01/15 11:09:35;;;;;;;;;;;;;;;6.33;72.50;99571.84;5048306;28;19920;-77
2023/01/15 11:19:41;;;;;;;;;;;;;;;6.28;71.06;99589.38;5051459;28;19959;-76
2023/01/15 11:22:44;;;;;;;;;;;;;;;6.23;70.79;99581.00;5051409;28;19986;-77
2023/01/15 11:25:49;;;;;;;;;;;;;;;6.04;71.68;99586.25;5051359;28;19920;-77
2023/01/15 11:28:52;;;;;;;;;;;;;;;6.12;71.99;99572.88;5071026;28;19919;-76
2023/01/15 11:31:55;;;;;;;;;;;;;;;6.37;70.24;99572.50;5051534;28;19927;-77
2023/01/15 11:35:00;;;;;;;;;;;;;;;6.58;70.15;99584.44;5050979;28;19919;-76
2023/01/15 11:38:06;;;;;;;;;;;;;;;6.52;69.72;99584.72;5050870;28;19954;-76
2023/01/15 11:51:55;;;;;;;;;;;;;;;6.46;68.43;99538.28;5024569;28;19940;-76
2023/01/15 11:55:01;;;;;;;;;;;;;;;6.41;69.10;99537.69;5056016;28;19957;-76
2023/01/15 11:58:07;;;;;;;;;;;;;;;6.58;68.75;99536.84;5050820;28;19982;-76
2023/01/15 12:01:20;;;;;;;;;;;;;;;6.82;67.64;99534.69;5050391;28;19998;-76
2023/01/15 12:04:29;;;;;;;;;;;;;;;6.74;67.87;99520.38;5050940;28;19920;-76
2023/01/15 12:07:37;;;;;;;;;;;;;;;6.57;66.36;99535.97;5050640;28;19969;-77
2023/01/15 12:11:03;;;;;;;;;;;;;;;6.45;65.91;99528.84;5050999;28;20019;-76
2023/01/15 12:14:25;;;;;;;;;;;;;;;6.52;65.90;99532.78;5050498;28;20027;-76
2023/01/15 12:17:34;;;;;;;;;;;;;;;6.63;66.17;99534.81;5050019;28;20332;-77
2023/01/15 12:20:37;;;;;;;;;;;;;;;6.70;65.30;99539.63;5049650;28;19966;-76
2023/01/15 12:23:40;;;;;;;;;;;;;;;6.82;65.01;99537.31;5037667;28;19938;-76
2023/01/15 12:26:52;;;;;;;;;;;;;;;6.87;64.92;99537.91;5049943;28;19920;-76
2023/01/15 12:29:58;;;;;;;;;;;;;;;6.72;65.18;99535.19;5050144;28;19923;-76
2023/01/15 12:33:11;;;;;;;;;;;;;;;6.84;65.32;99548.47;5050099;28;19924;-76
2023/01/15 12:36:20;;;;;;;;;;;;;;;6.97;64.85;99533.91;5050481;28;19935;-80
2023/01/15 12:39:28;;;;;;;;;;;;;;;6.75;64.62;99536.78;5050271;28;19966;-79
2023/01/15 12:45:59;;;;;;;;;;;;;;;6.78;64.29;99526.25;5039738;28;20296;-80
2023/01/15 12:49:18;;;;;;;;;;;;;;;6.87;64.59;99538.75;5036180;28;19924;-81
2023/01/15 12:52:26;;;;;;;;;;;;;;;6.90;64.33;99542.94;5048445;28;20255;-81
2023/01/15 12:55:33;;;;;;;;;;;;;;;6.78;63.45;99546.19;5048080;28;20535;-80
2023/01/15 12:58:46;;;;;;;;;;;;;;;6.78;63.37;99513.25;5056918;28;19966;-80
2023/01/15 13:02:12;;;;;;;;;;;;;;;6.80;63.02;99533.97;5070179;28;19958;-80
2023/01/15 13:05:21;;;;;;;;;;;;;;;6.66;63.00;99517.31;5069788;28;19919;-80
2023/01/15 13:08:32;;;;;;;;;;;;;;;6.60;63.09;99530.63;5069974;28;19962;-80
2023/01/15 13:11:35;;;;;;;;;;;;;;;6.52;62.83;99525.84;5069217;28;20385;-80
2023/01/15 13:14:38;;;;;;;;;;;;;;;6.68;61.81;99538.03;5069264;28;19966;-80
2023/01/15 13:17:55;;;;;;;;;;;;;;;6.93;62.26;99535.00;5055503;28;19982;-80
2023/01/15 13:21:14;;;;;;;;;;;;;;;7.04;61.08;99527.44;5055968;28;19920;-80
2023/01/15 13:24:27;;;;;;;;;;;;;;;7.19;60.10;99511.03;5055332;28;19966;-81
2023/01/15 13:27:49;;;;;;;;;;;;;;;7.14;59.60;99523.44;5066035;28;19919;-81
2023/01/15 13:31:07;;;;;;;;;;;;;;;7.19;57.51;99529.22;5053725;28;19970;-80
2023/01/15 13:34:31;;;;;;;;;;;;;;;7.19;58.35;99544.81;5068408;28;19959;-81
2023/01/15 13:37:46;;;;;;;;;;;;;;;7.08;58.61;99533.31;5068534;28;19926;-82
2023/01/15 13:40:51;;;;;;;;;;;;;;;7.15;58.66;99540.72;5068709;28;19959;-82
2023/01/15 13:43:59;;;;;;;;;;;;;;;7.18;58.58;99535.34;5068799;28;19962;-82
2023/01/15 13:47:18;;;;;;;;;;;;;;;7.17;58.87;99582.22;5068813;28;19938;-82
2023/01/15 13:50:30;;;;;;;;;;;;;;;7.19;58.99;99547.44;5057742;28;20007;-82
2023/01/15 13:53:43;;;;;;;;;;;;;;;7.14;58.90;99557.22;5069251;28;20012;-82
2023/01/15 13:56:47;;;;;;;;;;;;;;;7.09;59.10;99550.63;5075078;28;19922;-81
2023/01/15 13:59:51;;;;;;;;;;;;;;;7.07;59.30;99542.03;4731373;28;10000437;-81
2023/01/15 14:02:55;;;;;;;;;;;;;;;7.02;60.08;99550.09;5075915;28;19919;-81
2023/01/15 14:05:59;;;;;;;;;;;;;;;7.06;59.59;99567.22;5088561;28;19918;-80
2023/01/15 14:09:04;;;;;;;;;;;;;;;7.15;59.88;99565.88;5088732;28;20385;-80
2023/01/15 14:12:27;;;;;;;;;;;;;;;7.17;59.20;99548.44;5088745;28;19923;-81
2023/01/15 14:15:45;;;;;;;;;;;;;;;7.30;59.68;99548.59;5089380;28;19922;-81
2023/01/15 14:18:58;;;;;;;;;;;;;;;7.21;58.52;99556.00;5089138;28;19919;-80
2023/01/15 14:22:08;;;;;;;;;;;;;;;7.60;58.56;99567.75;5076307;28;20272;-81
2023/01/15 14:25:46;;;;;;;;;;;;;;;7.48;58.72;99555.41;5088612;28;19919;-81
2023/01/15 14:29:08;;;;;;;;;;;;;;;7.13;58.24;99532.16;4991169;28;20338;-80
2023/01/15 14:32:30;;;;;;;;;;;;;;;7.16;59.07;99537.19;5088507;28;19938;-81
2023/01/15 14:35:34;;;;;;;;;;;;;;;7.07;59.62;99531.66;5070310;28;19958;-80
2023/01/15 14:38:47;;;;;;;;;;;;;;;7.08;59.35;99541.94;5068703;28;20449;-81
2023/01/15 14:45:39;;;;;;;;;;;;;;;7.05;59.61;99549.94;5058485;28;19931;-80
2023/01/15 14:48:42;;;;;;;;;;;;;;;7.18;59.35;99545.75;5071556;28;19958;-79
2023/01/15 14:55:57;;;;;;;;;;;;;;;7.05;59.76;99560.34;5075375;28;20011;-80
2023/01/15 14:59:09;;;;;;;;;;;;;;;7.15;59.61;99560.69;5079994;28;19932;-80
2023/01/15 15:06:10;;;;;;;;;;;;;;;7.03;60.11;99582.13;5075294;28;20376;-80
2023/01/15 15:09:16;;;;;;;;;;;;;;;7.08;60.04;99599.13;5075552;28;19919;-80
2023/01/15 15:12:38;;;;;;;;;;;;;;;7.02;60.43;99596.88;5075455;28;19927;-80
2023/01/15 15:20:00;;;;;;;;;;;;;;;6.90;61.15;99600.97;5074600;28;19919;-80
2023/01/15 15:23:11;;;;;;;;;;;;;;;6.88;61.91;99614.94;5073893;28;19969;-81
2023/01/15 15:26:19;;;;;;;;;;;;;;;6.92;61.54;99608.66;5074976;28;19966;-80
2023/01/15 15:29:23;;;;;;;;;;;;;;;7.16;62.25;99612.59;5074685;28;19965;-82
2023/01/15 15:32:26;;;;;;;;;;;;;;;6.92;61.90;99625.13;5076830;28;19962;-81
2023/01/15 15:35:31;;;;;;;;;;;;;;;6.90;62.21;99607.91;5074809;28;19919;-81
2023/01/15 15:38:39;;;;;;;;;;;;;;;6.99;62.71;99602.25;5073121;28;20016;-81
2023/01/15 15:48:56;;;;;;;;;;;;;;;6.83;62.91;99606.53;5074917;28;19923;-83
2023/01/15 15:51:59;;;;;;;;;;;;;;;6.96;62.51;99612.81;4722057;28;10000124;-84
2023/01/15 15:55:04;;;;;;;;;;;;;;;7.05;62.79;99607.13;5071162;28;20431;-84
2023/01/15 15:58:28;;;;;;;;;;;;;;;7.22;61.69;99607.06;5070615;28;19920;-84
2023/01/15 16:01:37;;;;;;;;;;;;;;;7.30;61.80;99611.00;5060078;28;20053;-83
2023/01/15 16:04:46;;;;;;;;;;;;;;;7.18;62.47;99609.91;5069744;28;19997;-83
2023/01/15 16:07:51;;;;;;;;;;;;;;;7.00;62.67;99609.13;5047265;28;20058;-85
2023/01/15 16:15:29;;;;;;;;;;;;;;;7.13;63.44;99610.16;5070208;28;19977;-88
2023/01/15 16:18:51;;;;;;;;;;;;;;;7.29;62.81;99611.94;5060631;28;19927;-80
2023/01/15 16:21:54;;;;;;;;;;;;;;;7.29;62.81;99614.53;5069854;28;19919;-76
2023/01/15 16:24:58;;;;;;;;;;;;;;;7.26;63.22;99617.31;5072244;28;19919;-81
2023/01/15 16:28:04;;;;;;;;;;;;;;;7.42;63.00;99616.41;5061085;28;20179;-80
2023/01/15 16:31:08;;;;;;;;;;;;;;;7.33;63.78;99605.66;5047795;28;19939;-82
2023/01/15 16:34:20;;;;;;;;;;;;;;;7.43;63.24;99606.81;5062467;28;19927;-78
2023/01/15 16:37:34;;;;;;;;;;;;;;;7.30;63.65;99617.03;5074102;28;19991;-78
2023/01/15 16:40:38;;;;;;;;;;;;;;;6.91;65.32;99614.78;5073882;28;19927;-80
2023/01/15 16:43:53;;;;;;;;;;;;;;;6.97;66.50;99615.31;5061168;28;19918;-85
2023/01/15 16:46:58;;;;;;;;;;;;;;;6.95;67.08;99616.28;5073514;28;19977;-83
2023/01/15 16:50:19;;;;;;;;;;;;;;;6.81;67.98;99616.19;5060438;28;19920;-81
2023/01/15 16:53:30;;;;;;;;;;;;;;;7.15;66.59;99618.72;5061033;28;19966;-84
2023/01/15 16:56:33;;;;;;;;;;;;;;;6.95;67.58;99608.50;5072640;28;19977;-85
2023/01/15 16:59:43;;;;;;;;;;;;;;;6.89;67.58;99611.41;5071863;28;20427;-84
2023/01/15 17:02:46;;;;;;;;;;;;;;;6.80;67.94;99610.16;5052970;28;19919;-83
2023/01/15 17:05:54;;;;;;;;;;;;;;;6.99;67.09;99607.44;5055178;28;19966;-83
2023/01/15 17:08:58;;;;;;;;;;;;;;;7.10;67.11;99602.50;5053124;28;19966;-83
2023/01/15 17:12:27;;;;;;;;;;;;;;;7.25;66.99;99603.47;5053476;28;19920;-83
2023/01/15 17:15:35;;;;;;;;;;;;;;;7.43;66.21;99599.03;5054085;28;20397;-84
2023/01/15 17:18:38;;;;;;;;;;;;;;;7.30;66.33;99618.81;5054141;28;20006;-82
2023/01/15 17:21:45;;;;;;;;;;;;;;;7.21;66.82;99601.94;5053844;28;20293;-84
2023/01/15 17:24:50;;;;;;;;;;;;;;;7.22;66.36;99604.47;5053668;28;19958;-85
2023/01/15 17:27:54;;;;;;;;;;;;;;;7.36;66.73;99605.47;5029935;28;19935;-83
2023/01/15 17:30:59;;;;;;;;;;;;;;;7.18;67.47;99618.56;5053117;28;20344;-82
2023/01/15 17:34:02;;;;;;;;;;;;;;;6.93;68.52;99612.97;5040988;28;19924;-82
2023/01/15 17:37:06;;;;;;;;;;;;;;;6.74;69.82;99606.09;5052693;28;19970;-81
2023/01/15 17:40:31;;;;;;;;;;;;;;;6.90;70.03;99611.34;5052979;28;19923;-79
2023/01/15 17:43:37;;;;;;;;;;;;;;;6.90;71.22;99613.13;5052771;28;20428;-81
2023/01/15 17:46:40;;;;;;;;;;;;;;;7.10;72.21;99605.09;5052728;28;19920;-81
2023/01/15 17:49:43;;;;;;;;;;;;;;;7.13;71.33;99607.53;5052853;28;20428;-80
2023/01/15 17:52:46;;;;;;;;;;;;;;;6.99;72.98;99610.03;5052197;28;20015;-80
2023/01/15 18:05:42;;;;;;;;;;;;;;;7.21;73.80;99613.19;5092790;28;20400;-80
2023/01/15 18:08:47;;;;;;;;;;;;;;;7.37;74.22;99622.75;5092913;28;19923;-78